createdAt,value
2018-04-30T00:00:24.793Z,16.1
2018-04-30T00:01:26.406Z,16.0
2018-04-30T00:02:28.018Z,16.1
2018-04-30T00:03:29.636Z,16.1
2018-04-30T00:04:31.250Z,16.0
2018-04-30T00:05:32.868Z,16.0
2018-04-30T00:06:34.485Z,15.9
2018-04-30T00:07:36.102Z,15.9
2018-04-30T00:08:37.713Z,16.0
2018-04-30T00:09:39.330Z,16.0
2018-04-30T00:10:41.635Z,16.0
2018-04-30T00:11:43.254Z,15.9
2018-04-30T00:12:44.870Z,15.8
2018-04-30T00:13:46.482Z,15.9
2018-04-30T00:14:48.101Z,15.8
2018-04-30T00:15:49.709Z,15.8
2018-04-30T00:16:51.328Z,15.8
2018-04-30T00:17:52.937Z,15.8
2018-04-30T00:18:54.553Z,15.8
2018-04-30T00:19:56.170Z,15.7
2018-04-30T00:20:57.786Z,15.8
2018-04-30T00:21:59.408Z,15.7
2018-04-30T00:23:01.020Z,15.7
2018-04-30T00:24:02.637Z,15.7
2018-04-30T00:25:04.251Z,15.6
2018-04-30T00:26:05.871Z,15.7
2018-04-30T00:27:07.476Z,15.5
2018-04-30T00:28:09.096Z,15.4
2018-04-30T00:29:10.710Z,15.5
2018-04-30T00:30:12.324Z,15.4
2018-04-30T00:31:13.944Z,15.4
2018-04-30T00:32:15.548Z,15.4
2018-04-30T00:33:17.163Z,15.3
2018-04-30T00:34:18.777Z,15.4
2018-04-30T00:35:20.395Z,15.3
2018-04-30T00:36:22.011Z,15.3
2018-04-30T00:37:23.628Z,15.3
2018-04-30T00:38:25.241Z,15.2
2018-04-30T00:39:26.887Z,15.3
2018-04-30T00:40:28.464Z,15.3
2018-04-30T00:41:30.081Z,15.3
2018-04-30T00:42:31.694Z,15.3
2018-04-30T00:43:33.311Z,15.3
2018-04-30T00:44:34.999Z,15.3
2018-04-30T00:45:36.537Z,15.2
2018-04-30T00:46:38.154Z,15.2
2018-04-30T00:47:39.767Z,15.3
2018-04-30T00:48:41.382Z,15.2
2018-04-30T00:49:42.998Z,15.1
2018-04-30T00:50:44.615Z,14.9
2018-04-30T00:51:46.225Z,15.0
2018-04-30T00:52:47.844Z,15.0
2018-04-30T00:53:49.451Z,15.1
2018-04-30T00:54:51.071Z,14.9
2018-04-30T00:55:52.689Z,14.8
2018-04-30T00:56:54.304Z,14.9
2018-04-30T00:57:55.918Z,14.9
2018-04-30T00:58:57.529Z,14.9
2018-04-30T00:59:59.145Z,14.8
2018-04-30T01:01:00.756Z,14.9
2018-04-30T01:02:02.380Z,14.7
2018-04-30T01:03:03.989Z,14.7
2018-04-30T01:04:05.608Z,14.7
2018-04-30T01:05:07.223Z,14.7
2018-04-30T01:06:08.833Z,14.6
2018-04-30T01:07:10.447Z,14.7
2018-04-30T01:08:12.058Z,14.7
2018-04-30T01:09:13.677Z,14.7
2018-04-30T01:10:15.293Z,14.5
2018-04-30T01:11:16.903Z,14.6
2018-04-30T01:12:18.522Z,14.4
2018-04-30T01:13:20.138Z,14.5
2018-04-30T01:14:21.755Z,14.6
2018-04-30T01:15:23.365Z,14.5
2018-04-30T01:16:24.984Z,14.4
2018-04-30T01:17:26.592Z,14.5
2018-04-30T01:18:28.204Z,14.4
2018-04-30T01:19:29.825Z,14.4
2018-04-30T01:20:31.432Z,14.5
2018-04-30T01:21:33.051Z,14.5
2018-04-30T01:22:34.662Z,14.5
2018-04-30T01:23:36.277Z,14.4
2018-04-30T01:24:37.889Z,14.4
2018-04-30T01:25:39.507Z,14.3
2018-04-30T01:26:41.123Z,14.3
2018-04-30T01:27:42.732Z,14.4
2018-04-30T01:28:44.349Z,14.4
2018-04-30T01:29:45.966Z,14.4
2018-04-30T01:30:47.573Z,14.4
2018-04-30T01:31:49.195Z,14.3
2018-04-30T01:32:50.803Z,14.3
2018-04-30T01:33:52.423Z,14.4
2018-04-30T01:34:54.037Z,14.4
2018-04-30T01:35:55.648Z,14.4
2018-04-30T01:36:57.269Z,14.5
2018-04-30T01:37:58.881Z,14.4
2018-04-30T01:39:00.500Z,14.4
2018-04-30T01:40:02.110Z,14.4
2018-04-30T01:41:03.719Z,14.4
2018-04-30T01:42:05.335Z,14.3
2018-04-30T01:43:06.948Z,14.2
2018-04-30T01:44:08.562Z,14.4
2018-04-30T01:45:10.181Z,14.4
2018-04-30T01:46:11.795Z,14.6
2018-04-30T01:47:13.411Z,14.5
2018-04-30T01:48:15.023Z,14.5
2018-04-30T01:49:16.632Z,14.5
2018-04-30T01:50:18.249Z,14.4
2018-04-30T01:51:19.856Z,14.4
2018-04-30T01:52:21.473Z,14.6
2018-04-30T01:53:23.089Z,14.4
2018-04-30T01:54:24.701Z,14.4
2018-04-30T01:55:26.315Z,14.4
2018-04-30T01:56:27.931Z,14.5
2018-04-30T01:57:29.547Z,14.6
2018-04-30T01:58:31.157Z,14.5
2018-04-30T01:59:32.770Z,14.5
2018-04-30T02:00:34.381Z,14.5
2018-04-30T02:01:35.995Z,14.4
2018-04-30T02:02:37.615Z,14.5
2018-04-30T02:03:39.225Z,14.4
2018-04-30T02:04:40.840Z,14.5
2018-04-30T02:05:42.459Z,14.6
2018-04-30T02:06:44.064Z,14.5
2018-04-30T02:07:45.683Z,14.4
2018-04-30T02:08:47.293Z,14.4
2018-04-30T02:09:48.907Z,14.4
2018-04-30T02:10:50.520Z,14.4
2018-04-30T02:11:52.127Z,14.4
2018-04-30T02:12:53.744Z,14.4
2018-04-30T02:13:55.360Z,14.3
2018-04-30T02:14:56.971Z,14.4
2018-04-30T02:15:58.590Z,14.4
2018-04-30T02:17:00.200Z,14.4
2018-04-30T02:18:01.854Z,14.5
2018-04-30T02:19:03.469Z,14.5
2018-04-30T02:20:05.077Z,14.4
2018-04-30T02:21:06.693Z,14.4
2018-04-30T02:22:08.310Z,14.5
2018-04-30T02:23:09.921Z,14.4
2018-04-30T02:24:11.541Z,14.5
2018-04-30T02:25:13.150Z,14.4
2018-04-30T02:26:14.763Z,14.4
2018-04-30T02:27:16.380Z,14.5
2018-04-30T02:28:17.998Z,14.4
2018-04-30T02:29:19.607Z,14.5
2018-04-30T02:30:21.221Z,14.4
2018-04-30T02:31:22.840Z,14.5
2018-04-30T02:32:24.450Z,14.4
2018-04-30T02:33:26.132Z,14.3
2018-04-30T02:34:27.681Z,14.5
2018-04-30T02:35:29.297Z,14.5
2018-04-30T02:36:30.909Z,14.4
2018-04-30T02:37:32.526Z,14.5
2018-04-30T02:38:34.144Z,14.5
2018-04-30T02:39:35.754Z,14.5
2018-04-30T02:40:37.375Z,14.5
2018-04-30T02:41:38.982Z,14.5
2018-04-30T02:42:40.595Z,14.5
2018-04-30T02:43:42.217Z,14.5
2018-04-30T02:44:43.825Z,14.4
2018-04-30T02:45:45.446Z,14.4
2018-04-30T02:46:47.054Z,14.4
2018-04-30T02:47:48.674Z,14.3
2018-04-30T02:48:50.284Z,14.4
2018-04-30T02:49:51.894Z,14.4
2018-04-30T02:50:53.512Z,14.6
2018-04-30T02:51:55.127Z,14.4
2018-04-30T02:52:56.740Z,14.5
2018-04-30T02:53:58.353Z,14.6
2018-04-30T02:54:59.972Z,14.5
2018-04-30T02:56:01.579Z,14.5
2018-04-30T02:57:03.197Z,14.6
2018-04-30T02:58:04.810Z,14.6
2018-04-30T02:59:06.418Z,14.5
2018-04-30T03:00:08.039Z,14.5
2018-04-30T03:01:09.645Z,14.6
2018-04-30T03:02:11.260Z,14.5
2018-04-30T03:03:12.877Z,14.6
2018-04-30T03:04:14.488Z,14.6
2018-04-30T03:05:16.104Z,14.5
2018-04-30T03:06:17.720Z,14.6
2018-04-30T03:07:19.334Z,14.6
2018-04-30T03:08:20.950Z,14.5
2018-04-30T03:09:22.564Z,14.6
2018-04-30T03:10:24.175Z,14.6
2018-04-30T03:11:25.793Z,14.6
2018-04-30T03:12:27.407Z,14.6
2018-04-30T03:13:29.022Z,14.6
2018-04-30T03:14:30.640Z,14.5
2018-04-30T03:15:32.249Z,14.5
2018-04-30T03:16:33.864Z,14.6
2018-04-30T03:17:35.474Z,14.5
2018-04-30T03:18:37.088Z,14.5
2018-04-30T03:19:38.705Z,14.6
2018-04-30T03:20:40.318Z,14.5
2018-04-30T03:21:41.936Z,14.6
2018-04-30T03:22:43.544Z,14.5
2018-04-30T03:23:45.156Z,14.5
2018-04-30T03:24:46.777Z,14.5
2018-04-30T03:25:48.386Z,14.5
2018-04-30T03:26:49.994Z,14.5
2018-04-30T03:27:51.609Z,14.5
2018-04-30T03:28:53.225Z,14.5
2018-04-30T03:29:54.833Z,14.5
2018-04-30T03:30:56.452Z,14.5
2018-04-30T03:31:58.067Z,14.5
2018-04-30T03:32:59.677Z,14.4
2018-04-30T03:34:01.293Z,14.5
2018-04-30T03:35:02.904Z,14.5
2018-04-30T03:36:04.530Z,14.5
2018-04-30T03:37:06.136Z,14.5
2018-04-30T03:38:07.749Z,14.5
2018-04-30T03:39:09.373Z,14.4
2018-04-30T03:40:10.980Z,14.4
2018-04-30T03:41:12.595Z,14.5
2018-04-30T03:42:14.208Z,14.5
2018-04-30T03:43:15.825Z,14.5
2018-04-30T03:44:17.433Z,14.6
2018-04-30T03:45:19.044Z,14.5
2018-04-30T03:46:20.657Z,14.6
2018-04-30T03:47:22.266Z,14.7
2018-04-30T03:48:23.879Z,14.8
2018-04-30T03:49:25.497Z,14.8
2018-04-30T03:50:27.120Z,14.7
2018-04-30T03:51:28.726Z,14.9
2018-04-30T03:52:30.349Z,14.8
2018-04-30T03:53:31.957Z,14.8
2018-04-30T03:54:33.566Z,14.8
2018-04-30T03:55:35.179Z,14.8
2018-04-30T03:56:36.791Z,14.9
2018-04-30T03:57:38.410Z,14.9
2018-04-30T03:58:40.025Z,14.8
2018-04-30T03:59:41.637Z,14.8
2018-04-30T04:00:43.248Z,14.8
2018-04-30T04:01:44.863Z,14.9
2018-04-30T04:02:46.483Z,14.9
2018-04-30T04:03:48.099Z,14.9
2018-04-30T04:04:49.714Z,14.9
2018-04-30T04:05:51.329Z,14.9
2018-04-30T04:06:52.944Z,14.9
2018-04-30T04:07:54.556Z,14.8
2018-04-30T04:08:56.167Z,14.9
2018-04-30T04:09:57.789Z,14.9
2018-04-30T04:10:59.405Z,14.9
2018-04-30T04:12:01.022Z,14.8
2018-04-30T04:13:02.642Z,14.9
2018-04-30T04:14:04.248Z,14.9
2018-04-30T04:15:05.863Z,14.9
2018-04-30T04:16:07.479Z,14.9
2018-04-30T04:17:09.100Z,14.8
2018-04-30T04:18:10.714Z,15.0
2018-04-30T04:19:12.332Z,14.9
2018-04-30T04:20:13.946Z,14.8
2018-04-30T04:21:15.563Z,14.9
2018-04-30T04:22:17.182Z,14.8
2018-04-30T04:23:18.800Z,14.8
2018-04-30T04:24:20.415Z,14.8
2018-04-30T04:25:22.034Z,14.9
2018-04-30T04:26:23.652Z,14.9
2018-04-30T04:27:25.266Z,15.0
2018-04-30T04:28:26.886Z,14.9
2018-04-30T04:29:28.502Z,14.9
2018-04-30T04:30:30.118Z,15.0
2018-04-30T04:31:31.733Z,15.0
2018-04-30T04:32:33.356Z,14.9
2018-04-30T04:33:34.973Z,14.9
2018-04-30T04:34:36.591Z,14.9
2018-04-30T04:35:38.210Z,15.0
2018-04-30T04:36:39.822Z,15.0
2018-04-30T04:37:41.446Z,15.0
2018-04-30T04:38:43.058Z,15.0
2018-04-30T04:39:44.680Z,14.9
2018-04-30T04:40:46.294Z,14.9
2018-04-30T04:41:47.933Z,15.0
2018-04-30T04:42:49.529Z,15.0
2018-04-30T04:43:51.149Z,15.0
2018-04-30T04:44:52.762Z,14.9
2018-04-30T04:45:54.385Z,14.9
2018-04-30T04:46:55.997Z,14.9
2018-04-30T04:47:57.615Z,15.0
2018-04-30T04:48:59.233Z,15.0
2018-04-30T04:50:00.850Z,14.8
2018-04-30T04:51:02.464Z,14.9
2018-04-30T04:52:04.078Z,14.9
2018-04-30T04:53:05.695Z,14.8
2018-04-30T04:54:07.311Z,14.9
2018-04-30T04:55:08.934Z,14.8
2018-04-30T04:56:10.544Z,14.9
2018-04-30T04:57:12.164Z,14.8
2018-04-30T04:58:13.777Z,14.9
2018-04-30T04:59:15.399Z,14.9
2018-04-30T05:00:17.009Z,14.9
2018-04-30T05:01:18.635Z,14.8
2018-04-30T05:02:20.324Z,14.9
2018-04-30T05:03:21.866Z,14.9
2018-04-30T05:04:23.484Z,14.8
2018-04-30T05:05:25.097Z,14.7
2018-04-30T05:06:26.713Z,14.8
2018-04-30T05:07:28.330Z,14.9
2018-04-30T05:08:29.956Z,14.8
2018-04-30T05:09:31.573Z,14.8
2018-04-30T05:10:33.188Z,14.8
2018-04-30T05:11:34.807Z,14.7
2018-04-30T05:12:36.420Z,14.9
2018-04-30T05:13:38.041Z,14.8
2018-04-30T05:14:39.661Z,14.9
2018-04-30T05:15:41.279Z,15.0
2018-04-30T05:16:42.900Z,15.0
2018-04-30T05:17:44.517Z,15.0
2018-04-30T05:18:46.149Z,15.1
2018-04-30T05:19:47.749Z,15.1
2018-04-30T05:20:49.391Z,15.2
2018-04-30T05:21:50.979Z,15.1
2018-04-30T05:22:52.595Z,15.2
2018-04-30T05:23:54.217Z,15.1
2018-04-30T05:24:55.834Z,15.1
2018-04-30T05:25:57.446Z,15.1
2018-04-30T05:26:59.064Z,15.1
2018-04-30T05:28:00.686Z,14.9
2018-04-30T05:29:02.301Z,15.1
2018-04-30T05:30:03.921Z,15.1
2018-04-30T05:31:05.537Z,15.2
2018-04-30T05:32:07.155Z,15.1
2018-04-30T05:33:08.768Z,15.1
2018-04-30T05:34:10.387Z,15.0
2018-04-30T05:35:12.003Z,15.0
2018-04-30T05:36:13.624Z,15.0
2018-04-30T05:37:15.238Z,15.2
2018-04-30T05:38:16.854Z,15.1
2018-04-30T05:39:18.473Z,14.9
2018-04-30T05:40:20.092Z,14.7
2018-04-30T05:41:21.714Z,14.6
2018-04-30T05:42:23.331Z,14.6
2018-04-30T05:43:24.947Z,14.6
2018-04-30T05:44:26.566Z,14.6
2018-04-30T05:45:28.188Z,14.5
2018-04-30T05:46:29.803Z,14.5
2018-04-30T05:47:31.423Z,14.5
2018-04-30T05:48:33.037Z,14.5
2018-04-30T05:49:34.656Z,14.5
2018-04-30T05:50:36.279Z,14.4
2018-04-30T05:51:37.899Z,14.4
2018-04-30T05:52:39.520Z,14.4
2018-04-30T05:53:41.138Z,14.3
2018-04-30T05:54:42.762Z,14.3
2018-04-30T05:55:44.378Z,14.3
2018-04-30T05:56:45.994Z,14.3
2018-04-30T05:57:47.617Z,14.4
2018-04-30T05:58:49.233Z,14.3
2018-04-30T05:59:50.850Z,14.3
2018-04-30T06:00:52.475Z,14.2
2018-04-30T06:01:54.096Z,14.1
2018-04-30T06:02:55.709Z,14.3
2018-04-30T06:03:57.326Z,14.2
2018-04-30T06:04:58.950Z,14.1
2018-04-30T06:06:00.564Z,14.1
2018-04-30T06:07:02.188Z,14.1
2018-04-30T06:08:03.805Z,14.2
2018-04-30T06:09:05.420Z,14.1
2018-04-30T06:10:07.039Z,14.1
2018-04-30T06:11:08.660Z,14.1
2018-04-30T06:12:10.354Z,14.0
2018-04-30T06:13:11.893Z,14.1
2018-04-30T06:14:13.519Z,14.2
2018-04-30T06:15:15.194Z,14.1
2018-04-30T06:16:16.749Z,14.0
2018-04-30T06:17:18.377Z,14.0
2018-04-30T06:18:19.983Z,14.1
2018-04-30T06:19:21.605Z,13.9
2018-04-30T06:20:23.230Z,13.9
2018-04-30T06:21:24.846Z,14.0
2018-04-30T06:22:26.467Z,14.0
2018-04-30T06:23:28.082Z,13.9
2018-04-30T06:24:29.699Z,13.9
2018-04-30T06:25:31.321Z,14.0
2018-04-30T06:26:32.957Z,14.1
2018-04-30T06:27:34.556Z,14.0
2018-04-30T06:28:36.178Z,14.0
2018-04-30T06:29:37.790Z,14.1
2018-04-30T06:30:39.411Z,14.1
2018-04-30T06:31:41.023Z,13.9
2018-04-30T06:32:42.643Z,14.0
2018-04-30T06:33:44.263Z,14.1
2018-04-30T06:34:45.881Z,14.0
2018-04-30T06:35:47.521Z,14.0
2018-04-30T06:36:49.124Z,14.0
2018-04-30T06:37:50.744Z,14.0
2018-04-30T06:38:52.360Z,14.0
2018-04-30T06:39:53.974Z,13.9
2018-04-30T06:40:55.593Z,13.8
2018-04-30T06:41:57.217Z,13.9
2018-04-30T06:42:58.836Z,13.8
2018-04-30T06:44:00.456Z,13.8
2018-04-30T06:45:02.071Z,13.8
2018-04-30T06:46:03.684Z,13.7
2018-04-30T06:47:05.304Z,13.6
2018-04-30T06:48:06.928Z,13.7
2018-04-30T06:49:08.543Z,13.7
2018-04-30T06:50:10.167Z,13.8
2018-04-30T06:51:11.774Z,13.8
2018-04-30T06:52:13.397Z,13.8
2018-04-30T06:53:15.016Z,13.7
2018-04-30T06:54:16.632Z,13.7
2018-04-30T06:55:18.252Z,13.9
2018-04-30T06:56:19.873Z,13.8
2018-04-30T06:57:21.498Z,13.7
2018-04-30T06:58:23.109Z,13.7
2018-04-30T06:59:24.723Z,13.9
2018-04-30T07:00:26.443Z,13.8
2018-04-30T07:01:27.960Z,13.9
2018-04-30T07:02:29.578Z,13.8
2018-04-30T07:03:31.198Z,14.0
2018-04-30T07:04:32.816Z,13.9
2018-04-30T07:05:34.429Z,13.9
2018-04-30T07:06:36.054Z,13.9
2018-04-30T07:07:37.669Z,13.8
2018-04-30T07:08:39.292Z,13.8
2018-04-30T07:09:41.112Z,13.7
2018-04-30T07:10:42.529Z,13.7
2018-04-30T07:11:44.152Z,13.8
2018-04-30T07:12:45.766Z,13.9
2018-04-30T07:13:47.383Z,13.8
2018-04-30T07:14:49.005Z,13.8
2018-04-30T07:15:50.631Z,13.8
2018-04-30T07:16:52.243Z,13.7
2018-04-30T07:17:53.866Z,13.8
2018-04-30T07:18:55.483Z,13.7
2018-04-30T07:19:57.106Z,13.8
2018-04-30T07:20:58.718Z,13.9
2018-04-30T07:22:00.335Z,13.9
2018-04-30T07:23:01.957Z,14.0
2018-04-30T07:24:03.584Z,14.0
2018-04-30T07:25:05.196Z,14.1
2018-04-30T07:26:06.811Z,14.0
2018-04-30T07:27:08.436Z,14.0
2018-04-30T07:28:10.056Z,14.1
2018-04-30T07:29:11.671Z,14.0
2018-04-30T07:30:13.295Z,14.1
2018-04-30T07:31:14.912Z,14.0
2018-04-30T07:32:16.531Z,14.2
2018-04-30T07:33:18.171Z,14.0
2018-04-30T07:34:19.763Z,14.1
2018-04-30T07:35:21.386Z,14.0
2018-04-30T07:36:24.449Z,14.1
2018-04-30T07:37:26.067Z,14.2
2018-04-30T07:38:27.689Z,14.1
2018-04-30T07:39:29.313Z,14.1
2018-04-30T07:40:30.936Z,14.1
2018-04-30T07:41:32.548Z,14.1
2018-04-30T07:42:34.164Z,14.1
2018-04-30T07:43:35.785Z,14.0
2018-04-30T07:44:37.397Z,14.1
2018-04-30T07:45:39.022Z,14.1
2018-04-30T07:46:40.644Z,14.0
2018-04-30T07:47:42.260Z,14.0
2018-04-30T07:48:43.879Z,13.9
2018-04-30T07:49:45.503Z,14.1
2018-04-30T07:50:47.112Z,14.1
2018-04-30T07:51:48.740Z,14.0
2018-04-30T07:52:50.354Z,14.1
2018-04-30T07:53:51.975Z,14.0
2018-04-30T07:54:53.596Z,14.0
2018-04-30T07:55:55.239Z,14.1
2018-04-30T07:56:56.830Z,13.9
2018-04-30T07:57:58.450Z,14.0
2018-04-30T07:59:00.072Z,13.9
2018-04-30T08:00:01.687Z,13.9
2018-04-30T08:01:03.304Z,13.9
2018-04-30T08:02:04.930Z,14.0
2018-04-30T08:03:06.555Z,13.9
2018-04-30T08:04:08.163Z,14.0
2018-04-30T08:05:09.784Z,13.9
2018-04-30T08:06:11.399Z,13.9
2018-04-30T08:07:13.015Z,13.9
2018-04-30T08:08:14.635Z,13.9
2018-04-30T08:09:16.342Z,14.0
2018-04-30T08:10:17.879Z,13.8
2018-04-30T08:11:19.491Z,13.7
2018-04-30T08:12:21.112Z,13.9
2018-04-30T08:13:22.726Z,13.8
2018-04-30T08:14:24.351Z,14.0
2018-04-30T08:15:25.966Z,14.0
2018-04-30T08:16:27.590Z,13.9
2018-04-30T08:17:29.204Z,13.9
2018-04-30T08:18:30.826Z,14.0
2018-04-30T08:19:32.440Z,13.8
2018-04-30T08:20:34.061Z,13.9
2018-04-30T08:21:35.752Z,13.8
2018-04-30T08:22:37.302Z,13.9
2018-04-30T08:23:38.931Z,13.9
2018-04-30T08:24:40.541Z,13.9
2018-04-30T08:25:42.160Z,13.9
2018-04-30T08:26:43.779Z,13.9
2018-04-30T08:27:45.402Z,13.7
2018-04-30T08:28:47.019Z,13.8
2018-04-30T08:29:48.641Z,13.8
2018-04-30T08:30:50.258Z,13.8
2018-04-30T08:31:51.873Z,13.7
2018-04-30T08:32:53.494Z,13.6
2018-04-30T08:33:55.115Z,13.6
2018-04-30T08:34:56.728Z,13.5
2018-04-30T08:35:58.351Z,13.6
2018-04-30T08:36:59.966Z,13.6
2018-04-30T08:38:01.589Z,13.4
2018-04-30T08:39:03.207Z,13.4
2018-04-30T08:40:04.819Z,13.4
2018-04-30T08:41:06.443Z,13.4
2018-04-30T08:42:08.059Z,13.3
2018-04-30T08:43:09.679Z,13.2
2018-04-30T08:44:11.304Z,13.4
2018-04-30T08:45:12.924Z,13.4
2018-04-30T08:46:14.536Z,13.4
2018-04-30T08:47:16.159Z,13.4
2018-04-30T08:48:17.775Z,13.5
2018-04-30T08:49:19.394Z,13.4
2018-04-30T08:50:21.011Z,13.3
2018-04-30T08:51:22.635Z,13.5
2018-04-30T08:52:24.257Z,13.4
2018-04-30T08:53:25.868Z,13.4
2018-04-30T08:54:27.483Z,13.3
2018-04-30T08:55:29.100Z,13.4
2018-04-30T08:56:30.717Z,13.3
2018-04-30T08:57:32.341Z,13.4
2018-04-30T08:58:33.999Z,13.4
2018-04-30T08:59:35.574Z,13.3
2018-04-30T09:00:37.211Z,13.3
2018-04-30T09:01:38.813Z,13.4
2018-04-30T09:02:40.433Z,13.4
2018-04-30T09:03:42.048Z,13.4
2018-04-30T09:04:43.667Z,13.4
2018-04-30T09:05:45.287Z,13.2
2018-04-30T09:06:46.903Z,13.4
2018-04-30T09:07:48.522Z,13.4
2018-04-30T09:08:50.142Z,13.4
2018-04-30T09:09:51.753Z,13.3
2018-04-30T09:10:53.374Z,13.4
2018-04-30T09:11:54.989Z,13.3
2018-04-30T09:12:56.611Z,13.3
2018-04-30T09:13:58.229Z,13.2
2018-04-30T09:14:59.863Z,13.3
2018-04-30T09:16:01.466Z,13.2
2018-04-30T09:17:03.080Z,13.2
2018-04-30T09:18:04.700Z,13.3
2018-04-30T09:19:06.321Z,13.4
2018-04-30T09:20:07.936Z,13.3
2018-04-30T09:21:09.554Z,13.4
2018-04-30T09:22:11.175Z,13.4
2018-04-30T09:23:12.792Z,13.6
2018-04-30T09:24:14.410Z,13.5
2018-04-30T09:25:16.031Z,13.6
2018-04-30T09:26:17.644Z,13.6
2018-04-30T09:27:19.267Z,13.6
2018-04-30T09:28:20.880Z,13.7
2018-04-30T09:29:22.500Z,13.8
2018-04-30T09:30:24.120Z,13.8
2018-04-30T09:31:25.738Z,14.0
2018-04-30T09:32:27.361Z,14.0
2018-04-30T09:33:28.986Z,14.1
2018-04-30T09:34:30.601Z,14.3
2018-04-30T09:35:32.228Z,14.4
2018-04-30T09:36:33.843Z,14.5
2018-04-30T09:37:35.465Z,14.5
2018-04-30T09:38:37.080Z,14.7
2018-04-30T09:39:38.696Z,14.9
2018-04-30T09:40:40.321Z,14.7
2018-04-30T09:41:41.941Z,14.9
2018-04-30T09:42:43.565Z,14.9
2018-04-30T09:43:45.182Z,14.9
2018-04-30T09:44:46.808Z,14.8
2018-04-30T09:45:48.424Z,14.9
2018-04-30T09:46:50.047Z,14.7
2018-04-30T09:47:51.659Z,14.8
2018-04-30T09:48:53.283Z,14.9
2018-04-30T09:49:54.901Z,14.9
2018-04-30T09:50:56.517Z,14.8
2018-04-30T09:51:58.136Z,14.6
2018-04-30T09:52:59.752Z,14.6
2018-04-30T09:54:01.374Z,14.5
2018-04-30T09:55:02.991Z,14.6
2018-04-30T09:56:04.610Z,14.6
2018-04-30T09:57:06.236Z,14.6
2018-04-30T09:58:07.850Z,14.5
2018-04-30T09:59:09.472Z,14.8
2018-04-30T10:00:11.094Z,14.9
2018-04-30T10:01:12.708Z,14.9
2018-04-30T10:02:14.328Z,14.9
2018-04-30T10:03:15.948Z,14.9
2018-04-30T10:04:17.577Z,15.1
2018-04-30T10:05:19.191Z,15.3
2018-04-30T10:06:20.803Z,15.3
2018-04-30T10:07:22.510Z,15.2
2018-04-30T10:08:24.046Z,15.6
2018-04-30T10:09:25.671Z,15.5
2018-04-30T10:10:27.292Z,15.6
2018-04-30T10:11:28.921Z,15.7
2018-04-30T10:12:30.539Z,15.8
2018-04-30T10:13:32.157Z,16.1
2018-04-30T10:14:33.780Z,16.2
2018-04-30T10:15:35.398Z,16.5
2018-04-30T10:16:37.022Z,16.8
2018-04-30T10:17:38.664Z,17.3
2018-04-30T10:18:40.265Z,17.4
2018-04-30T10:19:41.888Z,18.0
2018-04-30T10:20:43.519Z,17.8
2018-04-30T10:21:45.141Z,17.9
2018-04-30T10:22:46.764Z,18.0
2018-04-30T10:23:48.483Z,17.9
2018-04-30T10:24:50.018Z,18.0
2018-04-30T10:25:51.638Z,17.6
2018-04-30T10:26:53.258Z,17.8
2018-04-30T10:27:54.886Z,17.9
2018-04-30T10:28:56.508Z,18.3
2018-04-30T10:29:58.136Z,19.0
2018-04-30T10:30:59.765Z,19.4
2018-04-30T10:32:01.388Z,19.9
2018-04-30T10:33:03.015Z,20.5
2018-04-30T10:34:04.641Z,20.3
2018-04-30T10:35:06.265Z,20.2
2018-04-30T10:36:07.889Z,20.2
2018-04-30T10:37:09.515Z,19.9
2018-04-30T10:38:11.144Z,20.2
2018-04-30T10:39:12.771Z,20.7
2018-04-30T10:40:14.408Z,21.0
2018-04-30T10:41:16.036Z,21.4
2018-04-30T10:42:17.668Z,21.5
2018-04-30T10:43:19.303Z,22.0
2018-04-30T10:44:20.952Z,22.8
2018-04-30T10:45:22.563Z,23.0
2018-04-30T10:46:24.194Z,22.7
2018-04-30T10:47:25.825Z,22.2
2018-04-30T10:48:27.462Z,22.3
2018-04-30T10:49:29.091Z,21.9
2018-04-30T10:50:30.729Z,21.7
2018-04-30T10:51:32.416Z,21.2
2018-04-30T10:52:33.991Z,20.5
2018-04-30T10:53:35.629Z,20.4
2018-04-30T10:54:37.256Z,19.4
2018-04-30T10:55:38.885Z,19.4
2018-04-30T10:56:40.525Z,19.0
2018-04-30T10:57:42.142Z,18.7
2018-04-30T10:58:43.778Z,18.8
2018-04-30T10:59:45.404Z,19.0
2018-04-30T11:00:47.034Z,19.4
2018-04-30T11:01:48.667Z,19.7
2018-04-30T11:02:50.291Z,19.9
2018-04-30T11:03:51.918Z,19.4
2018-04-30T11:04:53.548Z,19.4
2018-04-30T11:05:55.174Z,19.0
2018-04-30T11:06:56.804Z,18.3
2018-04-30T11:07:58.436Z,18.2
2018-04-30T11:09:00.061Z,18.1
2018-04-30T11:10:01.693Z,18.2
2018-04-30T11:11:03.324Z,18.0
2018-04-30T11:12:04.941Z,17.8
2018-04-30T11:13:06.574Z,17.6
2018-04-30T11:14:08.195Z,17.4
2018-04-30T11:15:09.826Z,17.4
2018-04-30T11:16:11.456Z,17.3
2018-04-30T11:17:13.074Z,17.2
2018-04-30T11:18:14.696Z,17.2
2018-04-30T11:19:16.313Z,17.1
2018-04-30T11:20:17.938Z,17.1
2018-04-30T11:21:19.565Z,17.0
2018-04-30T11:22:21.190Z,17.0
2018-04-30T11:23:22.812Z,16.6
2018-04-30T11:24:24.431Z,16.6
2018-04-30T11:25:26.047Z,16.3
2018-04-30T11:26:27.673Z,16.2
2018-04-30T11:27:29.299Z,16.3
2018-04-30T11:28:30.915Z,16.2
2018-04-30T11:29:32.543Z,15.9
2018-04-30T11:30:34.158Z,15.9
2018-04-30T11:31:35.781Z,15.9
2018-04-30T11:32:37.402Z,15.7
2018-04-30T11:33:39.019Z,15.6
2018-04-30T11:34:40.644Z,15.6
2018-04-30T11:35:42.260Z,15.7
2018-04-30T11:36:43.881Z,15.8
2018-04-30T11:37:45.505Z,15.9
2018-04-30T11:38:47.120Z,15.9
2018-04-30T11:39:48.741Z,15.8
2018-04-30T11:40:50.358Z,15.9
2018-04-30T11:41:51.978Z,15.8
2018-04-30T11:42:53.607Z,15.9
2018-04-30T11:43:55.217Z,15.7
2018-04-30T11:44:56.840Z,15.6
2018-04-30T11:45:58.457Z,15.6
2018-04-30T11:47:00.085Z,15.8
2018-04-30T11:48:01.702Z,15.8
2018-04-30T11:49:03.319Z,15.7
2018-04-30T11:50:04.939Z,15.6
2018-04-30T11:51:06.560Z,15.7
2018-04-30T11:52:08.184Z,15.9
2018-04-30T11:53:09.807Z,15.8
2018-04-30T11:54:11.425Z,16.0
2018-04-30T11:55:13.045Z,16.3
2018-04-30T11:56:14.672Z,16.4
2018-04-30T11:57:16.295Z,16.7
2018-04-30T11:58:17.917Z,16.9
2018-04-30T11:59:19.545Z,16.8
2018-04-30T12:00:21.164Z,17.0
2018-04-30T12:01:22.785Z,17.6
2018-04-30T12:02:24.426Z,17.7
2018-04-30T12:03:26.036Z,17.7
2018-04-30T12:04:27.655Z,18.1
2018-04-30T12:05:29.279Z,18.1
2018-04-30T12:06:30.906Z,18.1
2018-04-30T12:07:32.531Z,18.5
2018-04-30T12:08:34.155Z,18.5
2018-04-30T12:09:35.784Z,18.6
2018-04-30T12:10:37.404Z,18.4
2018-04-30T12:11:39.034Z,18.6
2018-04-30T12:12:40.657Z,19.3
2018-04-30T12:13:42.285Z,18.8
2018-04-30T12:14:43.907Z,18.5
2018-04-30T12:15:45.533Z,18.2
2018-04-30T12:16:47.154Z,18.1
2018-04-30T12:17:48.779Z,17.9
2018-04-30T12:18:50.405Z,18.0
2018-04-30T12:19:52.031Z,17.9
2018-04-30T12:20:53.654Z,17.9
2018-04-30T12:21:55.291Z,17.9
2018-04-30T12:22:56.901Z,18.0
2018-04-30T12:23:58.528Z,18.0
2018-04-30T12:25:00.152Z,18.0
2018-04-30T12:26:01.774Z,18.4
2018-04-30T12:27:03.401Z,18.4
2018-04-30T12:28:05.027Z,18.1
2018-04-30T12:29:06.650Z,18.5
2018-04-30T12:30:08.278Z,19.2
2018-04-30T12:31:09.908Z,19.4
2018-04-30T12:32:11.526Z,19.6
2018-04-30T12:33:13.150Z,19.6
2018-04-30T12:34:14.781Z,19.6
2018-04-30T12:35:16.406Z,19.4
2018-04-30T12:36:18.034Z,19.9
2018-04-30T12:37:19.655Z,19.4
2018-04-30T12:38:21.285Z,19.3
2018-04-30T12:39:22.906Z,18.9
2018-04-30T12:40:24.531Z,19.3
2018-04-30T12:41:26.166Z,19.9
2018-04-30T12:42:27.789Z,20.2
2018-04-30T12:43:29.418Z,20.2
2018-04-30T12:44:31.046Z,20.2
2018-04-30T12:45:32.669Z,19.7
2018-04-30T12:46:34.299Z,19.6
2018-04-30T12:47:35.928Z,19.6
2018-04-30T12:48:37.559Z,19.2
2018-04-30T12:49:39.217Z,19.3
2018-04-30T12:50:40.837Z,18.4
2018-04-30T12:51:42.432Z,18.1
2018-04-30T12:52:44.057Z,18.3
2018-04-30T12:53:45.676Z,18.2
2018-04-30T12:54:47.298Z,17.9
2018-04-30T12:55:48.930Z,17.8
2018-04-30T12:56:50.555Z,17.6
2018-04-30T12:57:52.172Z,17.8
2018-04-30T12:58:53.802Z,17.7
2018-04-30T12:59:55.418Z,17.5
2018-04-30T13:00:57.047Z,17.5
2018-04-30T13:01:58.671Z,17.5
2018-04-30T13:03:00.296Z,17.7
2018-04-30T13:04:01.919Z,17.4
2018-04-30T13:05:03.537Z,17.5
2018-04-30T13:06:05.170Z,17.4
2018-04-30T13:07:06.783Z,17.4
2018-04-30T13:08:08.412Z,17.4
2018-04-30T13:09:10.120Z,17.6
2018-04-30T13:10:11.663Z,17.8
2018-04-30T13:11:13.290Z,18.4
2018-04-30T13:12:14.910Z,18.6
2018-04-30T13:13:16.538Z,18.4
2018-04-30T13:14:18.156Z,18.0
2018-04-30T13:15:19.855Z,17.7
2018-04-30T13:16:21.404Z,17.5
2018-04-30T13:17:23.029Z,17.5
2018-04-30T13:18:24.659Z,17.5
2018-04-30T13:19:26.276Z,17.7
2018-04-30T13:20:27.899Z,17.8
2018-04-30T13:21:29.525Z,17.8
2018-04-30T13:22:31.156Z,17.7
2018-04-30T13:23:32.775Z,17.6
2018-04-30T13:24:34.405Z,18.2
2018-04-30T13:25:36.031Z,18.3
2018-04-30T13:26:37.652Z,18.7
2018-04-30T13:27:39.281Z,19.0
2018-04-30T13:28:40.989Z,19.2
2018-04-30T13:29:42.535Z,19.5
2018-04-30T13:30:44.155Z,19.6
2018-04-30T13:31:45.780Z,20.3
2018-04-30T13:32:47.411Z,20.8
2018-04-30T13:33:49.035Z,21.3
2018-04-30T13:34:50.658Z,20.8
2018-04-30T13:35:52.284Z,20.9
2018-04-30T13:36:53.908Z,20.1
2018-04-30T13:37:55.538Z,19.3
2018-04-30T13:38:57.168Z,19.4
2018-04-30T13:39:58.792Z,19.0